Time;durP1;ratioP1;P1;durP2;ratioP2;P2;SDS_P1;SDS_P2;PMS_P1;PMS_P2;Temp;Humidity;BMP_temperature;BMP_pressure;BME280_temperature;BME280_humidity;BME280_pressure;Samples;Min_cycle;Max_cycle;Signal;HPM_P1;HPM_P2
2022/10/04 00:00:23;;;;;;;19.35;13.45;;;5.00;99.90;;;;;;4986513;28;20046;-71
2022/10/04 00:02:52;;;;;;;22.92;13.60;;;5.00;99.90;;;;;;4975605;28;20333;-71
2022/10/04 00:05:23;;;;;;;22.38;14.10;;;5.20;99.90;;;;;;4972184;28;20057;-70
2022/10/04 00:07:57;;;;;;;21.73;12.95;;;4.90;99.90;;;;;;4985647;28;20050;-71
2022/10/04 00:10:33;;;;;;;18.63;12.30;;;4.90;99.90;;;;;;4984676;28;20141;-71
2022/10/04 00:13:06;;;;;;;22.35;13.57;;;4.80;99.90;;;;;;4972157;28;20050;-71
2022/10/04 00:15:36;;;;;;;27.52;15.95;;;4.80;99.90;;;;;;4971488;28;20057;-70
2022/10/04 00:18:27;;;;;;;27.88;15.63;;;5.00;99.90;;;;;;4978856;28;20065;-70
2022/10/04 00:20:57;;;;;;;21.90;14.63;;;5.10;99.90;;;;;;4964537;28;20042;-70
2022/10/04 00:23:24;;;;;;;27.63;15.18;;;5.20;99.90;;;;;;4983827;28;20045;-70
2022/10/04 00:26:01;;;;;;;19.02;13.15;;;5.30;99.90;;;;;;4990662;28;20069;-70
2022/10/04 00:28:38;;;;;;;15.70;11.07;;;5.20;99.90;;;;;;4975808;28;20058;-70
2022/10/04 00:31:11;;;;;;;16.13;11.38;;;5.10;99.90;;;;;;4968470;28;20562;-71
2022/10/04 00:33:39;;;;;;;20.63;12.55;;;5.10;99.90;;;;;;4974512;28;20061;-70
2022/10/04 00:36:29;;;;;;;21.20;13.20;;;5.20;99.90;;;;;;4986067;28;20504;-71
2022/10/04 00:39:08;;;;;;;22.95;13.93;;;5.20;99.90;;;;;;4963425;28;20060;-71
2022/10/04 00:41:47;;;;;;;22.50;14.55;;;5.50;99.90;;;;;;4971181;28;20521;-71
2022/10/04 00:44:20;;;;;;;24.75;13.75;;;5.40;99.90;;;;;;4969109;28;20492;-71
2022/10/04 00:46:48;;;;;;;20.40;12.52;;;5.40;99.90;;;;;;4991978;28;20042;-71
2022/10/04 00:49:19;;;;;;;18.00;13.45;;;5.30;99.90;;;;;;4973625;28;20129;-71
2022/10/04 00:51:54;;;;;;;24.23;13.55;;;5.20;99.90;;;;;;4971009;28;20038;-70
2022/10/04 00:54:35;;;;;;;21.27;13.07;;;5.20;99.90;;;;;;4987969;28;20048;-70
2022/10/04 00:57:07;;;;;;;18.92;13.93;;;5.20;99.90;;;;;;4995038;28;20042;-70
2022/10/04 00:59:58;;;;;;;21.15;14.27;;;5.30;99.90;;;;;;4975148;28;20046;-70
2022/10/04 01:02:46;;;;;;;28.95;15.82;;;5.50;99.90;;;;;;4968390;28;20076;-70
2022/10/04 01:05:18;;;;;;;31.98;15.93;;;5.60;99.90;;;;;;4975288;28;20042;-71
2022/10/04 01:07:54;;;;;;;27.20;15.57;;;5.60;99.90;;;;;;4979570;28;20543;-71
2022/10/04 01:10:24;;;;;;;38.35;17.25;;;5.70;99.90;;;;;;4965743;28;20148;-71
2022/10/04 01:13:03;;;;;;;30.45;15.13;;;5.60;99.90;;;;;;4990652;28;20512;-71
2022/10/04 01:15:47;;;;;;;26.83;15.85;;;5.50;99.90;;;;;;4989756;23;20050;-74
2022/10/04 01:18:18;;;;;;;27.67;13.90;;;5.50;99.90;;;;;;4974295;28;20134;-75
2022/10/04 01:20:53;;;;;;;18.48;13.43;;;5.50;99.90;;;;;;4945745;28;20058;-75
2022/10/04 01:23:34;;;;;;;;;;;5.50;99.90;;;;;;4951424;28;20049;-75
2022/10/04 01:26:25;;;;;;;23.98;13.70;;;5.60;99.90;;;;;;4976459;28;20306;-75
2022/10/04 01:28:52;;;;;;;24.60;15.65;;;5.70;99.90;;;;;;4977582;28;20547;-73
2022/10/04 01:31:20;;;;;;;34.38;16.92;;;5.80;99.90;;;;;;4955965;28;20453;-75
2022/10/04 01:33:47;;;;;;;28.90;14.90;;;5.80;99.90;;;;;;4954283;28;20051;-75
2022/10/04 01:36:14;;;;;;;26.65;15.70;;;5.80;99.90;;;;;;4954849;28;20207;-74
2022/10/04 01:38:41;;;;;;;27.00;16.17;;;5.80;99.90;;;;;;4965235;28;20137;-74
2022/10/04 01:41:10;;;;;;;31.85;18.33;;;5.90;99.90;;;;;;4954311;28;20038;-74
2022/10/04 01:43:40;;;;;;;29.42;16.23;;;6.00;99.90;;;;;;4975852;28;20046;-74
2022/10/04 01:46:15;;;;;;;28.30;15.80;;;6.00;99.90;;;;;;4956213;28;20050;-74
2022/10/04 01:48:44;;;;;;;29.73;16.63;;;5.90;99.90;;;;;;4966289;28;20055;-74
2022/10/04 01:51:23;;;;;;;27.42;15.07;;;6.00;99.90;;;;;;4956441;28;20050;-74
2022/10/04 01:53:59;;;;;;;26.70;16.40;;;6.00;99.90;;;;;;4961211;28;20055;-74
2022/10/04 01:56:40;;;;;;;24.42;16.52;;;6.00;99.90;;;;;;4960491;28;20239;-74
2022/10/04 01:59:14;;;;;;;23.58;14.55;;;6.10;99.90;;;;;;4994981;28;20422;-74
2022/10/04 02:01:54;;;;;;;25.58;15.40;;;6.20;99.90;;;;;;4954308;28;20043;-74
2022/10/04 02:04:26;;;;;;;26.13;15.50;;;6.10;99.90;;;;;;4964247;28;20141;-73
2022/10/04 02:07:09;;;;;;;31.13;16.00;;;6.20;99.90;;;;;;4979486;28;20050;-74
2022/10/04 02:09:41;;;;;;;27.92;15.98;;;6.20;99.90;;;;;;4972557;28;20082;-74
2022/10/04 02:12:09;;;;;;;22.83;15.20;;;6.20;99.90;;;;;;4992783;28;20066;-74
2022/10/04 02:14:38;;;;;;;32.42;17.95;;;6.10;99.90;;;;;;4965062;28;20527;-74
2022/10/04 02:17:09;;;;;;;25.27;15.93;;;6.10;99.90;;;;;;4978932;28;20041;-74
2022/10/04 02:19:40;;;;;;;24.88;15.40;;;6.30;99.90;;;;;;4954463;28;20114;-74
2022/10/04 02:22:09;;;;;;;29.58;18.83;;;6.20;99.90;;;;;;4978002;28;20043;-73
2022/10/04 02:24:43;;;;;;;30.52;17.80;;;6.30;99.90;;;;;;4973341;28;20054;-74
2022/10/04 02:27:10;;;;;;;29.45;18.65;;;6.30;99.90;;;;;;4960645;28;20047;-75
2022/10/04 02:29:37;;;;;;;32.97;17.30;;;6.20;99.90;;;;;;4950590;28;20042;-74
2022/10/04 02:34:54;;;;;;;32.90;17.67;;;6.40;99.90;;;;;;4971623;28;20097;-74
2022/10/04 02:37:23;;;;;;;29.25;17.67;;;6.50;99.90;;;;;;4976341;28;20050;-74
2022/10/04 02:39:57;;;;;;;32.38;18.15;;;6.60;99.90;;;;;;4956351;28;20461;-75
2022/10/04 02:42:24;;;;;;;25.17;15.80;;;6.50;99.90;;;;;;4990706;28;20031;-74
2022/10/04 02:45:08;;;;;;;30.17;16.13;;;6.50;99.90;;;;;;4966253;28;20035;-74
2022/10/04 02:47:50;;;;;;;33.37;18.20;;;6.50;99.90;;;;;;4969774;28;20046;-75
2022/10/04 02:50:25;;;;;;;33.17;18.63;;;6.50;99.90;;;;;;4972848;28;20400;-74
2022/10/04 02:53:00;;;;;;;31.95;17.83;;;6.70;99.90;;;;;;4969027;28;20049;-74
2022/10/04 02:55:30;;;;;;;28.90;18.05;;;6.80;99.90;;;;;;4951770;28;20046;-74
2022/10/04 02:57:57;;;;;;;29.45;18.30;;;6.90;99.90;;;;;;4971202;28;20035;-74
2022/10/04 03:00:29;;;;;;;32.38;19.63;;;6.90;99.90;;;;;;4977219;28;20042;-74
2022/10/04 03:03:34;;;;;;;26.73;17.52;;;6.90;99.90;;;;;;4983897;28;20403;-74
2022/10/04 03:06:07;;;;;;;28.77;17.77;;;6.90;99.90;;;;;;4976426;28;20038;-74
2022/10/04 03:08:49;;;;;;;26.10;17.52;;;6.90;99.90;;;;;;4997576;23;20058;-76
2022/10/04 03:11:21;;;;;;;24.92;16.00;;;6.90;99.90;;;;;;4995694;28;20038;-72
2022/10/04 03:13:51;;;;;;;34.47;16.73;;;6.90;99.90;;;;;;4989612;28;20595;-73
2022/10/04 03:16:19;;;;;;;22.85;15.52;;;6.90;99.90;;;;;;4984762;28;20053;-77
2022/10/04 03:18:49;;;;;;;29.73;17.13;;;6.80;99.90;;;;;;4997147;28;20042;-76
2022/10/04 03:21:19;;;;;;;24.25;16.00;;;6.80;99.90;;;;;;4995714;28;20443;-72
2022/10/04 03:23:49;;;;;;;26.52;17.40;;;7.00;99.90;;;;;;4974465;28;20418;-72
2022/10/04 03:26:34;;;;;;;20.83;15.55;;;6.90;99.90;;;;;;4991863;28;20049;-73
2022/10/04 03:29:08;;;;;;;25.65;17.13;;;6.90;99.90;;;;;;4978001;28;20042;-73
2022/10/04 03:31:45;;;;;;;27.45;17.38;;;6.90;99.90;;;;;;4985513;28;20068;-75
2022/10/04 03:34:20;;;;;;;36.20;18.35;;;6.90;99.90;;;;;;4971378;28;20749;-76
2022/10/04 03:36:48;;;;;;;28.35;18.50;;;7.00;99.90;;;;;;4995794;28;20141;-77
2022/10/04 03:39:25;;;;;;;23.05;17.80;;;7.00;99.90;;;;;;5004002;28;20038;-76
2022/10/04 03:41:53;;;;;;;33.05;18.85;;;7.10;99.90;;;;;;4996635;28;20548;-72
2022/10/04 03:44:23;;;;;;;25.08;17.77;;;7.10;99.90;;;;;;4996003;28;20030;-74
2022/10/04 03:46:50;;;;;;;24.75;18.92;;;7.30;99.90;;;;;;4975219;28;20045;-72
2022/10/04 03:49:32;;;;;;;26.00;18.60;;;7.30;99.90;;;;;;4990274;28;20069;-76
2022/10/04 03:51:59;;;;;;;26.08;19.60;;;7.30;99.90;;;;;;4988866;28;20497;-74
2022/10/04 03:54:27;;;;;;;28.52;18.85;;;7.20;99.90;;;;;;4963758;28;20071;-72
2022/10/04 03:56:55;;;;;;;26.52;18.20;;;7.30;99.90;;;;;;4978172;28;20045;-73
2022/10/04 03:59:25;;;;;;;29.60;19.02;;;7.20;99.90;;;;;;4968614;28;20053;-71
2022/10/04 04:02:11;;;;;;;29.25;20.05;;;7.30;99.90;;;;;;4983932;28;20047;-77
2022/10/04 04:04:43;;;;;;;26.98;19.65;;;7.30;99.90;;;;;;4992002;28;20060;-74
2022/10/04 04:07:42;;;;;;;28.88;19.33;;;7.20;99.90;;;;;;4971479;28;20480;-72
2022/10/04 04:10:16;;;;;;;28.95;18.58;;;7.10;99.90;;;;;;4991367;28;20066;-73
2022/10/04 04:12:57;;;;;;;34.00;19.93;;;7.10;99.90;;;;;;4965940;28;20112;-74
2022/10/04 04:15:29;;;;;;;31.63;20.95;;;7.30;99.90;;;;;;4987895;28;20288;-73
2022/10/04 04:18:21;;;;;;;33.35;20.15;;;7.10;99.90;;;;;;4996045;28;20052;-77
2022/10/04 04:20:50;;;;;;;30.92;19.92;;;7.10;99.90;;;;;;4993297;28;20034;-74
2022/10/04 04:23:33;;;;;;;26.45;19.05;;;7.00;99.90;;;;;;4986924;28;20038;-78
2022/10/04 04:26:24;;;;;;;29.10;20.20;;;6.90;99.90;;;;;;4985213;28;20036;-72
2022/10/04 04:28:55;;;;;;;28.20;19.35;;;6.90;99.90;;;;;;4973018;28;20050;-76
2022/10/04 04:31:30;;;;;;;29.02;20.45;;;6.90;99.90;;;;;;4982973;28;20626;-71
2022/10/04 04:34:00;;;;;;;33.85;21.20;;;6.90;99.90;;;;;;4989418;28;20046;-72
2022/10/04 04:36:31;;;;;;;32.05;20.40;;;6.90;99.90;;;;;;4990388;28;20050;-74
2022/10/04 04:41:58;;;;;;;25.02;19.35;;;7.00;99.90;;;;;;4985184;28;20038;-73
2022/10/04 04:44:25;;;;;;;29.05;20.45;;;6.90;99.90;;;;;;4988795;28;20064;-74
2022/10/04 04:46:55;;;;;;;34.38;18.95;;;7.00;99.90;;;;;;4986070;28;20194;-75
2022/10/04 04:49:22;;;;;;;38.80;20.98;;;7.30;99.90;;;;;;4977065;28;20295;-73
2022/10/04 04:51:51;;;;;;;30.88;20.70;;;7.30;99.90;;;;;;4977622;28;20141;-75
2022/10/04 04:54:22;;;;;;;34.83;21.05;;;7.30;99.90;;;;;;4967150;28;20050;-74
2022/10/04 04:56:52;;;;;;;37.75;21.70;;;7.40;99.90;;;;;;4985978;28;20152;-72
2022/10/04 04:59:21;;;;;;;30.13;20.20;;;7.50;99.90;;;;;;4990554;28;20677;-72
2022/10/04 05:01:49;;;;;;;41.20;21.88;;;7.50;99.90;;;;;;4990598;28;20052;-74
2022/10/04 05:04:23;;;;;;;34.90;20.52;;;7.50;99.90;;;;;;4983645;28;20033;-76
2022/10/04 05:06:59;;;;;;;33.93;20.63;;;7.50;99.90;;;;;;4989448;28;20046;-75
2022/10/04 05:09:36;;;;;;;28.05;17.13;;;7.60;99.90;;;;;;4981301;28;20774;-75
2022/10/04 05:12:22;;;;;;;22.13;15.10;;;7.60;99.90;;;;;;4966864;28;20065;-74
2022/10/04 05:14:55;;;;;;;22.13;15.07;;;7.50;99.90;;;;;;4982623;28;20043;-77
2022/10/04 05:17:26;;;;;;;28.90;17.42;;;7.60;99.90;;;;;;4993557;28;20052;-72
2022/10/04 05:19:57;;;;;;;31.67;19.13;;;7.60;99.90;;;;;;4988999;28;20044;-78
2022/10/04 05:22:25;;;;;;;29.73;18.75;;;7.60;99.90;;;;;;4987048;28;20054;-74
2022/10/04 05:24:56;;;;;;;33.58;20.88;;;7.70;99.90;;;;;;4987124;28;20042;-77
2022/10/04 05:27:37;;;;;;;32.53;20.65;;;7.70;99.90;;;;;;4990317;28;20042;-74
2022/10/04 05:30:29;;;;;;;34.85;22.83;;;7.80;99.90;;;;;;4965216;28;20049;-74
2022/10/04 05:33:02;;;;;;;33.83;20.92;;;7.90;99.90;;;;;;4981453;28;20050;-73
2022/10/04 05:35:37;;;;;;;34.90;21.00;;;7.80;99.90;;;;;;4986716;28;20528;-76
2022/10/04 05:38:38;;;;;;;35.92;20.58;;;7.80;99.90;;;;;;4983247;28;20052;-73
2022/10/04 05:41:34;;;;;;;36.25;21.25;;;7.80;99.90;;;;;;4934120;28;20292;-71
2022/10/04 05:44:03;;;;;;;33.38;20.80;;;7.70;99.90;;;;;;4979330;28;20052;-73
2022/10/04 05:46:33;;;;;;;34.60;21.52;;;7.70;99.90;;;;;;4994158;28;20068;-70
2022/10/04 05:49:14;;;;;;;32.63;20.27;;;7.80;99.90;;;;;;4967789;28;20125;-73
2022/10/04 05:51:55;;;;;;;28.65;18.88;;;7.80;99.90;;;;;;4985909;28;20682;-75
2022/10/04 05:54:24;;;;;;;32.10;20.42;;;7.80;99.90;;;;;;4991650;28;20140;-76
2022/10/04 05:57:09;;;;;;;34.25;21.73;;;7.90;99.90;;;;;;4967574;28;20188;-75
2022/10/04 05:59:55;;;;;;;25.73;20.65;;;7.90;99.90;;;;;;4968967;28;20049;-76
2022/10/04 06:03:02;;;;;;;26.85;20.10;;;8.00;99.90;;;;;;4985071;28;20050;-76
2022/10/04 06:05:53;;;;;;;30.23;20.50;;;7.90;99.90;;;;;;4986095;28;20038;-75
2022/10/04 06:08:50;;;;;;;29.42;21.55;;;7.90;99.90;;;;;;4986953;28;20277;-73
2022/10/04 06:11:36;;;;;;;31.23;21.30;;;7.90;99.90;;;;;;4982520;28;20050;-73
2022/10/04 06:14:29;;;;;;;30.20;23.17;;;7.80;99.90;;;;;;4985355;28;20089;-75
2022/10/04 06:17:39;;;;;;;38.20;23.33;;;7.90;99.90;;;;;;4986027;28;20271;-74
2022/10/04 06:20:09;;;;;;;33.80;25.10;;;7.80;99.90;;;;;;4964183;28;20154;-74
2022/10/04 06:22:45;;;;;;;35.08;24.73;;;7.80;99.90;;;;;;4990396;28;20053;-74
2022/10/04 06:25:41;;;;;;;37.00;25.75;;;7.90;99.90;;;;;;4989308;28;20331;-76
2022/10/04 06:28:13;;;;;;;37.10;25.23;;;7.90;99.90;;;;;;4982891;28;20069;-75
2022/10/04 06:30:59;;;;;;;30.05;23.45;;;8.10;99.90;;;;;;4987987;28;20116;-74
2022/10/04 06:33:42;;;;;;;34.67;24.55;;;8.30;99.90;;;;;;4970609;28;20520;-77
2022/10/04 06:36:27;;;;;;;34.13;24.90;;;8.40;99.90;;;;;;4989181;28;20049;-74
2022/10/04 06:39:18;;;;;;;38.63;24.83;;;8.40;99.90;;;;;;4985143;28;20038;-75
2022/10/04 06:42:11;;;;;;;33.90;23.88;;;8.40;99.90;;;;;;4988004;28;21832;-75
2022/10/04 06:44:52;;;;;;;38.70;24.13;;;8.40;99.90;;;;;;4998739;28;20308;-75
2022/10/04 06:47:22;;;;;;;36.55;23.90;;;8.50;99.90;;;;;;4984524;28;20038;-75
2022/10/04 06:50:13;;;;;;;34.40;24.65;;;8.70;99.90;;;;;;4995832;28;20069;-73
2022/10/04 06:52:45;;;;;;;40.65;23.38;;;8.70;99.90;;;;;;4997872;28;20124;-76
2022/10/04 06:55:39;;;;;;;35.03;23.67;;;8.80;99.90;;;;;;4982049;28;20043;-75
2022/10/04 06:58:18;;;;;;;34.15;22.77;;;8.90;99.90;;;;;;4976054;28;20065;-74
2022/10/04 07:00:55;;;;;;;29.77;23.05;;;8.80;99.90;;;;;;4992617;28;20041;-74
2022/10/04 07:03:29;;;;;;;37.15;24.67;;;9.00;99.90;;;;;;4998994;28;20459;-75
2022/10/04 07:06:06;;;;;;;40.17;26.17;;;9.10;99.90;;;;;;4989770;28;20524;-74
2022/10/04 07:08:35;;;;;;;30.92;25.33;;;9.10;99.90;;;;;;4990338;28;20510;-77
2022/10/04 07:11:10;;;;;;;35.58;26.90;;;9.30;99.90;;;;;;4983052;28;20097;-74
2022/10/04 07:13:51;;;;;;;31.35;24.42;;;9.50;99.90;;;;;;4963113;28;20605;-72
2022/10/04 07:16:28;;;;;;;36.85;26.45;;;9.70;99.90;;;;;;4993471;23;20120;-71
2022/10/04 07:18:58;;;;;;;37.53;25.35;;;9.70;99.90;;;;;;4979212;28;20044;-70
2022/10/04 07:21:36;;;;;;;28.67;23.48;;;9.80;99.90;;;;;;5002435;28;20161;-70
2022/10/04 07:24:07;;;;;;;29.25;22.88;;;9.90;99.90;;;;;;4984693;28;20042;-71
2022/10/04 07:26:51;;;;;;;24.05;20.45;;;9.90;99.90;;;;;;4966176;28;20052;-70
2022/10/04 07:29:30;;;;;;;22.83;20.17;;;10.10;99.90;;;;;;4975390;28;20572;-71
2022/10/04 07:32:04;;;;;;;25.77;21.42;;;10.20;99.90;;;;;;4928925;28;20081;-70
2022/10/04 07:34:45;;;;;;;21.08;18.88;;;10.10;99.90;;;;;;4965387;28;20055;-71
2022/10/04 07:37:13;;;;;;;23.55;18.23;;;10.20;99.90;;;;;;4959481;28;20979;-71
2022/10/04 07:40:07;;;;;;;19.85;17.80;;;10.30;99.90;;;;;;4965236;28;20077;-70
2022/10/04 07:42:45;;;;;;;19.27;16.17;;;10.40;99.90;;;;;;4961453;28;20043;-71
2022/10/04 07:45:16;;;;;;;19.15;17.25;;;10.40;99.90;;;;;;4978996;28;20037;-73
2022/10/04 07:47:43;;;;;;;18.48;16.20;;;10.50;99.90;;;;;;4969571;28;20046;-73
2022/10/04 07:50:24;;;;;;;18.48;16.55;;;10.70;99.90;;;;;;4943138;28;20345;-74
2022/10/04 07:52:53;;;;;;;23.75;16.42;;;10.80;99.90;;;;;;4966666;28;20081;-74
2022/10/04 07:55:55;;;;;;;17.55;15.75;;;11.00;99.90;;;;;;4966867;28;20050;-73
2022/10/04 07:58:22;;;;;;;14.93;13.90;;;11.20;99.90;;;;;;4962240;28;20048;-73
2022/10/04 08:01:00;;;;;;;17.35;16.08;;;11.40;99.90;;;;;;4966820;28;20272;-74
2022/10/04 08:03:38;;;;;;;17.05;15.57;;;11.50;99.90;;;;;;4960856;28;20038;-73
2022/10/04 08:06:22;;;;;;;18.10;16.60;;;11.50;99.90;;;;;;4958059;28;20529;-73
2022/10/04 08:09:19;;;;;;;18.15;16.60;;;11.90;99.90;;;;;;4990273;28;20396;-73
2022/10/04 08:12:06;;;;;;;18.92;17.20;;;12.10;99.90;;;;;;4984905;28;20072;-73
2022/10/04 08:14:39;;;;;;;19.23;17.50;;;12.30;99.90;;;;;;4963353;28;20069;-74
2022/10/04 08:17:25;;;;;;;22.02;19.75;;;12.70;99.90;;;;;;4958605;28;20284;-73
2022/10/04 08:19:54;;;;;;;22.48;20.73;;;12.80;99.90;;;;;;4967184;28;20068;-73
2022/10/04 08:22:32;;;;;;;21.55;20.08;;;12.70;99.90;;;;;;4964273;28;20034;-74
2022/10/04 08:25:19;;;;;;;20.48;19.17;;;12.90;99.90;;;;;;4960569;28;20189;-73
2022/10/04 08:30:58;;;;;;;;;;;12.90;99.90;;;;;;4975800;28;20353;-72
2022/10/04 08:34:03;;;;;;;20.05;18.30;;;13.20;99.90;;;;;;4966156;28;20388;-73
2022/10/04 08:36:42;;;;;;;20.17;18.85;;;13.30;99.90;;;;;;4962664;28;20052;-74
2022/10/04 08:39:41;;;;;;;20.73;19.00;;;13.50;99.90;;;;;;4980244;28;20054;-72
2022/10/04 08:42:45;;;;;;;20.75;19.30;;;13.90;99.90;;;;;;4959591;28;20097;-72
2022/10/04 08:45:37;;;;;;;23.60;19.75;;;14.20;99.90;;;;;;4973913;28;20546;-72
2022/10/04 08:48:21;;;;;;;22.42;20.33;;;14.50;99.90;;;;;;4964725;28;20488;-72
2022/10/04 08:51:00;;;;;;;21.50;20.00;;;14.70;99.90;;;;;;4959709;28;20418;-73
2022/10/04 08:53:47;;;;;;;23.58;21.42;;;14.60;99.90;;;;;;4955672;28;20051;-73
2022/10/04 08:56:44;;;;;;;23.73;21.42;;;14.60;99.90;;;;;;4953998;28;21031;-72
2022/10/04 08:59:23;;;;;;;22.67;20.75;;;14.80;99.90;;;;;;4958520;28;20160;-72
2022/10/04 09:01:51;;;;;;;22.17;20.52;;;14.90;99.90;;;;;;4964970;28;20046;-71
2022/10/04 09:04:40;;;;;;;22.27;20.45;;;14.90;99.90;;;;;;4949053;28;20496;-72
2022/10/04 09:07:33;;;;;;;23.38;21.52;;;14.70;99.90;;;;;;4959891;28;20042;-72
2022/10/04 09:10:27;;;;;;;23.65;21.95;;;14.80;99.90;;;;;;4939354;28;20238;-72
2022/10/04 09:13:35;;;;;;;23.20;21.38;;;14.80;99.90;;;;;;4966487;28;20046;-73
2022/10/04 09:16:16;;;;;;;23.00;21.17;;;14.90;99.90;;;;;;4918824;28;20052;-72
2022/10/04 09:18:50;;;;;;;23.83;21.92;;;15.10;99.90;;;;;;4961090;28;20054;-72
2022/10/04 09:21:44;;;;;;;23.58;21.88;;;15.30;99.90;;;;;;4964138;28;20038;-73
2022/10/04 09:24:31;;;;;;;23.67;21.83;;;15.50;99.90;;;;;;4974617;28;20046;-72
2022/10/04 09:27:13;;;;;;;24.15;22.27;;;15.50;99.90;;;;;;4979549;28;20074;-72
2022/10/04 09:30:18;;;;;;;23.00;21.42;;;15.60;99.90;;;;;;4981140;28;20053;-71
2022/10/04 09:32:48;;;;;;;23.27;21.25;;;15.70;99.90;;;;;;4960471;28;20075;-72
2022/10/04 09:36:02;;;;;;;24.13;22.08;;;15.70;99.90;;;;;;4963012;28;20725;-74
2022/10/04 09:38:50;;;;;;;24.33;22.00;;;15.70;99.90;;;;;;4931706;28;20061;-74
2022/10/04 09:41:51;;;;;;;22.67;21.10;;;15.90;99.90;;;;;;4964432;28;20038;-75
2022/10/04 09:44:45;;;;;;;23.98;22.00;;;16.10;99.90;;;;;;4945116;28;20785;-74
2022/10/04 09:47:29;;;;;;;23.33;21.45;;;16.10;99.90;;;;;;4977616;28;20042;-74
2022/10/04 09:50:36;;;;;;;23.02;21.02;;;16.10;99.90;;;;;;4960207;28;20170;-74
2022/10/04 09:53:27;;;;;;;23.00;21.40;;;16.50;99.90;;;;;;5000148;28;20142;-73
2022/10/04 09:56:27;;;;;;;23.08;21.25;;;16.60;99.90;;;;;;5004032;28;20046;-71
2022/10/04 09:59:17;;;;;;;23.33;21.67;;;16.80;99.90;;;;;;4968060;28;20130;-72
2022/10/04 10:01:58;;;;;;;23.92;22.08;;;17.00;99.90;;;;;;4987310;28;20301;-73
2022/10/04 10:05:02;;;;;;;23.60;21.88;;;16.90;99.90;;;;;;4959700;28;20044;-72
2022/10/04 10:08:02;;;;;;;23.27;21.55;;;16.60;99.90;;;;;;4975354;28;20054;-71
2022/10/04 10:14:15;;;;;;;23.63;21.73;;;16.60;99.90;;;;;;4974767;28;20481;-71
2022/10/04 10:17:13;;;;;;;23.88;21.85;;;16.40;99.90;;;;;;4962383;28;20134;-71
2022/10/04 10:20:18;;;;;;;23.45;21.50;;;16.40;99.90;;;;;;4979251;28;20042;-70
2022/10/04 10:23:29;;;;;;;24.40;22.35;;;16.70;99.90;;;;;;4977973;28;20042;-70
2022/10/04 10:26:22;;;;;;;23.58;21.95;;;16.70;99.90;;;;;;4962964;28;20038;-72
2022/10/04 10:29:01;;;;;;;24.05;22.08;;;16.80;99.90;;;;;;4982832;28;20042;-69
2022/10/04 10:31:39;;;;;;;23.83;21.75;;;16.80;99.90;;;;;;4982110;28;20128;-70
2022/10/04 10:34:23;;;;;;;24.63;22.42;;;16.80;99.90;;;;;;4977738;28;20492;-73
2022/10/04 10:37:08;;;;;;;24.73;22.67;;;16.90;99.90;;;;;;4960580;28;20046;-70
2022/10/04 10:40:13;;;;;;;23.65;21.95;;;16.80;99.90;;;;;;4960991;28;20046;-71
2022/10/04 10:43:02;;;;;;;23.27;21.67;;;17.20;99.90;;;;;;4974424;28;20076;-70
2022/10/04 10:45:47;;;;;;;25.15;23.15;;;17.30;99.90;;;;;;4959593;28;20399;-70
2022/10/04 10:48:39;;;;;;;25.60;23.50;;;17.10;99.90;;;;;;4960605;28;20856;-70
2022/10/04 10:51:17;;;;;;;24.95;23.15;;;17.00;99.90;;;;;;4978110;28;20041;-71
2022/10/04 10:54:08;;;;;;;25.23;23.15;;;17.00;99.90;;;;;;4970607;28;20040;-71
2022/10/04 10:56:37;;;;;;;24.77;22.95;;;17.00;99.90;;;;;;4980877;28;20297;-70
2022/10/04 10:59:53;;;;;;;25.48;23.35;;;17.00;99.90;;;;;;4958069;28;20038;-71
2022/10/04 11:02:41;;;;;;;24.80;22.58;;;17.30;99.90;;;;;;4956960;28;20608;-71
2022/10/04 11:05:47;;;;;;;24.95;23.00;;;17.30;99.90;;;;;;4961338;28;20134;-71
2022/10/04 11:08:35;;;;;;;23.63;21.92;;;17.10;99.90;;;;;;4977171;28;20054;-71
2022/10/04 11:11:17;;;;;;;24.02;22.10;;;17.20;99.90;;;;;;4954792;28;20053;-70
2022/10/04 11:14:21;;;;;;;24.48;22.48;;;17.20;99.90;;;;;;4957763;28;20088;-71
2022/10/04 11:17:09;;;;;;;23.85;22.05;;;17.30;99.90;;;;;;4977314;28;20081;-70
2022/10/04 11:20:23;;;;;;;25.50;23.60;;;17.20;99.90;;;;;;4978275;28;20060;-70
2022/10/04 11:23:24;;;;;;;25.48;23.20;;;17.30;99.90;;;;;;4964103;28;20046;-70
2022/10/04 11:26:06;;;;;;;25.50;23.23;;;17.40;99.90;;;;;;4979282;28;20038;-70
2022/10/04 11:29:09;;;;;;;24.40;22.70;;;17.40;99.90;;;;;;4979478;28;20046;-71
2022/10/04 11:31:42;;;;;;;24.67;22.95;;;17.60;99.90;;;;;;4960148;28;20052;-70
2022/10/04 11:34:49;;;;;;;25.35;23.05;;;17.70;99.90;;;;;;4973711;28;20273;-71
2022/10/04 11:37:42;;;;;;;25.08;23.10;;;17.60;99.90;;;;;;4981261;28;20529;-71
2022/10/04 11:40:11;;;;;;;24.98;22.65;;;17.70;99.90;;;;;;4973857;28;20043;-71
2022/10/04 11:43:16;;;;;;;25.73;23.73;;;17.50;99.90;;;;;;4980579;28;20054;-71
2022/10/04 11:45:43;;;;;;;25.13;22.88;;;17.60;99.90;;;;;;4960527;28;20097;-71
2022/10/04 11:48:42;;;;;;;25.38;23.38;;;17.60;99.90;;;;;;4978600;28;20530;-71
2022/10/04 11:51:47;;;;;;;26.33;24.50;;;17.40;99.90;;;;;;4958215;28;20113;-73
2022/10/04 11:54:46;;;;;;;27.77;25.07;;;17.60;99.90;;;;;;4962343;28;20493;-73
2022/10/04 11:57:41;;;;;;;26.85;24.75;;;17.70;99.90;;;;;;4957697;28;20038;-73
2022/10/04 12:00:22;;;;;;;26.55;24.63;;;17.80;99.90;;;;;;4977328;28;20034;-73
2022/10/04 12:03:04;;;;;;;25.85;23.83;;;18.10;99.90;;;;;;4947474;28;20312;-72
2022/10/04 12:05:48;;;;;;;26.05;23.95;;;18.10;99.90;;;;;;4979617;28;20896;-71
2022/10/04 12:08:30;;;;;;;25.63;23.73;;;17.90;99.90;;;;;;4984071;28;20645;-71
2022/10/04 12:11:14;;;;;;;25.58;23.55;;;17.70;99.90;;;;;;4960877;28;20105;-71
2022/10/04 12:14:15;;;;;;;25.88;23.63;;;17.60;99.90;;;;;;4972895;28;20054;-71
2022/10/04 12:17:07;;;;;;;27.05;24.45;;;17.70;99.90;;;;;;4954274;28;20061;-71
2022/10/04 12:20:15;;;;;;;25.05;23.15;;;17.60;99.90;;;;;;4954881;28;20051;-71
2022/10/04 12:23:14;;;;;;;25.92;23.75;;;17.80;99.90;;;;;;4977512;28;20061;-72
2022/10/04 12:25:52;;;;;;;26.00;23.98;;;17.90;99.90;;;;;;4978497;28;20133;-72
2022/10/04 12:28:33;;;;;;;25.77;23.58;;;18.00;99.90;;;;;;4978140;28;20038;-71
2022/10/04 12:31:09;;;;;;;26.25;24.30;;;17.90;99.90;;;;;;4959854;28;20133;-72
2022/10/04 12:33:38;;;;;;;25.48;23.55;;;17.80;99.90;;;;;;4962550;28;20361;-72
2022/10/04 12:36:38;;;;;;;26.23;24.20;;;18.10;99.90;;;;;;4974039;28;20121;-72
2022/10/04 12:39:29;;;;;;;24.77;23.02;;;18.20;99.90;;;;;;4889792;28;20044;-72
2022/10/04 12:42:21;;;;;;;25.02;23.13;;;18.10;99.90;;;;;;4941504;28;20050;-72
2022/10/04 12:45:32;;;;;;;26.02;23.95;;;18.20;99.90;;;;;;4978061;28;20624;-71
2022/10/04 12:48:12;;;;;;;25.83;23.83;;;18.00;99.90;;;;;;4925115;28;20366;-71
2022/10/04 12:50:44;;;;;;;25.67;23.67;;;18.10;99.90;;;;;;4969617;28;20046;-70
2022/10/04 12:53:22;;;;;;;26.33;24.38;;;18.20;99.90;;;;;;4974816;28;20046;-70
2022/10/04 12:56:21;;;;;;;26.05;23.98;;;18.30;99.90;;;;;;4959937;28;20039;-71
2022/10/04 12:58:59;;;;;;;25.60;23.60;;;18.50;99.90;;;;;;4974035;28;20046;-71
2022/10/04 13:01:38;;;;;;;25.15;23.10;;;18.50;99.90;;;;;;4975856;28;20460;-71
2022/10/04 13:04:43;;;;;;;25.50;23.52;;;18.50;99.90;;;;;;4954732;28;20066;-70
2022/10/04 13:07:22;;;;;;;27.08;24.88;;;18.50;99.90;;;;;;4975119;28;20054;-71
2022/10/04 13:10:12;;;;;;;24.73;23.00;;;18.50;99.90;;;;;;4960992;28;20059;-71
2022/10/04 13:13:11;;;;;;;25.67;23.63;;;18.60;99.90;;;;;;4973889;28;20054;-71
2022/10/04 13:16:09;;;;;;;24.33;22.52;;;18.50;99.90;;;;;;5016778;22;20431;-70
2022/10/04 13:19:02;;;;;;;24.35;22.55;;;18.50;99.90;;;;;;5015926;28;20112;-69
2022/10/04 13:21:35;;;;;;;23.50;21.88;;;18.50;99.90;;;;;;4994645;28;20069;-69
2022/10/04 13:24:30;;;;;;;24.20;22.45;;;18.70;99.90;;;;;;5012915;28;20037;-70
2022/10/04 13:27:07;;;;;;;23.55;21.77;;;18.60;99.90;;;;;;4993348;28;20041;-72
2022/10/04 13:30:12;;;;;;;24.17;22.38;;;18.60;99.90;;;;;;5017413;28;20430;-70
2022/10/04 13:33:25;;;;;;;22.95;21.20;;;18.60;99.90;;;;;;4968803;28;20053;-70
2022/10/04 13:36:07;;;;;;;23.95;22.27;;;18.70;99.90;;;;;;4943732;28;20142;-69
2022/10/04 13:39:02;;;;;;;24.10;22.40;;;18.80;99.90;;;;;;4926883;29;20445;-69
2022/10/04 13:41:41;;;;;;;24.17;22.48;;;18.70;99.90;;;;;;5000913;28;20056;-70
2022/10/04 13:44:26;;;;;;;23.38;21.77;;;18.70;99.90;;;;;;5014302;28;20197;-68
2022/10/04 13:47:03;;;;;;;23.88;22.05;;;18.80;99.90;;;;;;4991296;28;20049;-72
2022/10/04 13:49:55;;;;;;;24.88;22.83;;;18.70;99.90;;;;;;5010102;28;20076;-69
2022/10/04 13:58:56;;;;;;;22.70;21.25;;;18.80;99.90;;;;;;4994876;28;20060;-69
2022/10/04 14:01:40;;;;;;;23.77;21.65;;;18.90;99.90;;;;;;5012549;28;21234;-69
2022/10/04 14:04:28;;;;;;;22.98;21.50;;;18.80;99.90;;;;;;5008768;28;20046;-69